• Join FlightAware (Why Join?)
  • Login
  • US Flag 
08:14AM EST


 

Airport Tracker/Info


-or-


 

Live Flight TrackerFlight Track Log ✈ TAP56 ✈ 05-May-2013 ✈ SBCF / CNF - LPPT / LIS

Flight Track Log - Related Links

Times and Time Zones

All times are in EDT time to prevent confusion due to time zone crossing. See the TAP56 flight status page for this flight to view local times or setup timezone preferences in your user account.

Time Position Orientation Groundspeed Altitude Reporting Facility
EDT Latitude Longitude Course Direction KTS MPH feet Rate Location/Type
10:02PM -17.2254 -42.5775 29° Northeast  Level Estimated
10:03PM -17.1157 -42.5151 29° Northeast  Level Estimated
10:04PM -17.0060 -42.4529 28° Northeast  Level Estimated
10:05PM -16.8962 -42.3907 28° Northeast  Level Estimated
10:06PM -16.7865 -42.3285 28° Northeast  Level Estimated
10:07PM -16.6767 -42.2665 28° Northeast  Level Estimated
10:08PM -16.5669 -42.2045 28° Northeast  Level Estimated
10:09PM -16.4571 -42.1426 28° Northeast  Level Estimated
10:10PM -16.3472 -42.0808 28° Northeast  Level Estimated
10:11PM -16.2374 -42.0190 28° Northeast  Level Estimated
10:12PM -16.1275 -41.9573 28° Northeast  Level Estimated
10:13PM -16.0176 -41.8956 28° Northeast  Level Estimated
10:14PM -15.9077 -41.8341 28° Northeast  Level Estimated
10:15PM -15.7978 -41.7726 28° Northeast  Level Estimated
10:16PM -15.6879 -41.7112 28° Northeast  Level Estimated
10:17PM -15.5779 -41.6498 28° Northeast  Level Estimated
10:18PM -15.4679 -41.5885 28° Northeast  Level Estimated
10:19PM -15.3580 -41.5272 28° Northeast  Level Estimated
10:20PM -15.2479 -41.4661 28° Northeast  Level Estimated
10:21PM -15.1379 -41.4050 28° Northeast  Level Estimated
10:22PM -15.0279 -41.3439 28° Northeast  Level Estimated
10:23PM -14.9178 -41.2829 28° Northeast  Level Estimated
10:24PM -14.8077 -41.2220 28° Northeast  Level Estimated
10:25PM -14.6977 -41.1612 28° Northeast  Level Estimated
10:26PM -14.5876 -41.1003 28° Northeast  Level Estimated
10:27PM -14.4774 -41.0396 28° Northeast  Level Estimated
10:28PM -14.3673 -40.9789 28° Northeast  Level Estimated
10:29PM -14.2571 -40.9183 28° Northeast  Level Estimated
10:30PM -14.1470 -40.8577 28° Northeast  Level Estimated
10:31PM -14.0368 -40.7972 28° Northeast  Level Estimated
10:32PM -13.9266 -40.7368 28° Northeast  Level Estimated
10:33PM -13.8164 -40.6764 28° Northeast  Level Estimated
10:34PM -13.7062 -40.6161 28° Northeast  Level Estimated
10:35PM -13.5959 -40.5558 28° Northeast  Level Estimated
10:36PM -13.4857 -40.4956 28° Northeast  Level Estimated
10:37PM -13.3754 -40.4355 28° Northeast  Level Estimated
10:38PM -13.2651 -40.3754 28° Northeast  Level Estimated
10:39PM -13.1548 -40.3153 28° Northeast  Level Estimated
10:40PM -13.0445 -40.2553 28° Northeast  Level Estimated
10:41PM -12.9342 -40.1954 28° Northeast  Level Estimated
10:42PM -12.8238 -40.1355 28° Northeast  Level Estimated
10:43PM -12.7135 -40.0757 28° Northeast  Level Estimated
10:44PM -12.6031 -40.0159 28° Northeast  Level Estimated
10:45PM -12.4927 -39.9562 28° Northeast  Level Estimated
10:46PM -12.3823 -39.8965 28° Northeast  Level Estimated
10:47PM -12.2719 -39.8368 28° Northeast  Level Estimated
10:48PM -12.1615 -39.7773 28° Northeast  Level Estimated
10:49PM -12.0511 -39.7177 28° Northeast  Level Estimated
10:50PM -11.9406 -39.6582 28° Northeast  Level Estimated
10:51PM -11.8302 -39.5988 28° Northeast  Level Estimated
10:52PM -11.7197 -39.5394 28° Northeast  Level Estimated
10:53PM -11.6092 -39.4801 28° Northeast  Level Estimated
10:54PM -11.4987 -39.4208 28° Northeast  Level Estimated
10:55PM -11.3882 -39.3616 28° Northeast  Level Estimated
10:56PM -11.2777 -39.3024 28° Northeast  Level Estimated
10:57PM -11.1672 -39.2432 28° Northeast  Level Estimated
10:58PM -11.0566 -39.1841 28° Northeast  Level Estimated
10:59PM -10.9461 -39.1250 28° Northeast  Level Estimated
11:00PM -10.8355 -39.0660 28° Northeast  Level Estimated
11:01PM -10.7250 -39.0071 28° Northeast  Level Estimated
11:02PM -10.6144 -38.9481 28° Northeast  Level Estimated
11:03PM -10.5038 -38.8892 28° Northeast  Level Estimated
11:04PM -10.3932 -38.8304 28° Northeast  Level Estimated
11:05PM -10.2825 -38.7716 28° Northeast  Level Estimated
11:06PM -10.1719 -38.7128 28° Northeast  Level Estimated
11:07PM -10.0613 -38.6541 28° Northeast  Level Estimated
11:08PM -9.9506 -38.5954 28° Northeast  Level Estimated
11:09PM -9.8400 -38.5368 28° Northeast  Level Estimated
11:10PM -9.7293 -38.4782 28° Northeast  Level Estimated
11:11PM -9.6186 -38.4196 28° Northeast  Level Estimated
11:12PM -9.5079 -38.3611 28° Northeast  Level Estimated
11:13PM -9.3972 -38.3026 28° Northeast  Level Estimated
11:14PM -9.2865 -38.2441 28° Northeast  Level Estimated
11:15PM -9.1758 -38.1857 28° Northeast  Level Estimated
11:16PM -9.0651 -38.1273 28° Northeast  Level Estimated
11:17PM -8.9543 -38.0690 27° Northeast  Level Estimated
11:18PM -8.8436 -38.0107 27° Northeast  Level Estimated
11:19PM -8.7328 -37.9524 27° Northeast  Level Estimated
11:20PM -8.6221 -37.8942 27° Northeast  Level Estimated
11:21PM -8.5113 -37.8360 27° Northeast  Level Estimated
11:22PM -8.4005 -37.7778 27° Northeast  Level Estimated
11:23PM -8.2897 -37.7197 27° Northeast  Level Estimated
11:24PM -8.1789 -37.6616 27° Northeast  Level Estimated
11:25PM -8.0681 -37.6035 27° Northeast  Level Estimated
11:26PM -7.9573 -37.5455 27° Northeast  Level Estimated
11:27PM -7.8465 -37.4875 27° Northeast  Level Estimated
11:28PM -7.7356 -37.4295 27° Northeast  Level Estimated
11:29PM -7.6248 -37.3715 27° Northeast  Level Estimated
11:30PM -7.5139 -37.3136 27° Northeast  Level Estimated
11:31PM -7.4031 -37.2557 27° Northeast  Level Estimated
11:32PM -7.2922 -37.1979 27° Northeast  Level Estimated
11:33PM -7.1814 -37.1400 27° Northeast  Level Estimated
11:34PM -7.0705 -37.0822 27° Northeast  Level Estimated
11:35PM -6.9596 -37.0245 27° Northeast  Level Estimated
11:36PM -6.8487 -36.9667 27° Northeast  Level Estimated
11:37PM -6.7378 -36.9090 27° Northeast  Level Estimated
11:38PM -6.6269 -36.8513 27° Northeast  Level Estimated
11:39PM -6.5160 -36.7936 27° Northeast  Level Estimated
11:40PM -6.4051 -36.7360 27° Northeast  Level Estimated
11:41PM -6.2942 -36.6784 27° Northeast  Level Estimated
11:42PM -6.1832 -36.6208 27° Northeast  Level Estimated
11:43PM -6.0723 -36.5632 27° Northeast  Level Estimated
11:44PM -5.9613 -36.5057 27° Northeast  Level Estimated
11:45PM -5.8504 -36.4482 27° Northeast  Level Estimated
11:46PM -5.7394 -36.3907 27° Northeast  Level Estimated
11:47PM -5.6285 -36.3332 27° Northeast  Level Estimated
11:48PM -5.5175 -36.2757 27° Northeast  Level Estimated
11:49PM -5.4065 -36.2183 27° Northeast  Level Estimated
11:50PM -5.2956 -36.1609 27° Northeast  Level Estimated
11:51PM -5.1846 -36.1035 27° Northeast  Level Estimated
11:52PM -5.0736 -36.0461 27° Northeast  Level Estimated
11:53PM -4.9626 -35.9888 27° Northeast  Level Estimated
11:54PM -4.8516 -35.9314 27° Northeast  Level Estimated
11:55PM -4.7406 -35.8741 27° Northeast  Level Estimated
11:56PM -4.6296 -35.8168 27° Northeast  Level Estimated
11:57PM -4.5186 -35.7596 27° Northeast  Level Estimated
11:58PM -4.4076 -35.7023 27° Northeast  Level Estimated
11:59PM -4.2965 -35.6451 27° Northeast  Level Estimated
12:00AM -4.1855 -35.5878 27° Northeast  Level Estimated
12:01AM -4.0745 -35.5306 27° Northeast  Level Estimated
12:02AM -3.9635 -35.4734 27° Northeast  Level Estimated
12:03AM -3.8524 -35.4163 27° Northeast  Level Estimated
12:04AM -3.7414 -35.3591 27° Northeast  Level Estimated
12:05AM -3.6304 -35.3019 27° Northeast  Level Estimated
12:06AM -3.5193 -35.2448 27° Northeast  Level Estimated
12:07AM -3.4083 -35.1877 27° Northeast  Level Estimated
12:08AM -3.2972 -35.1306 27° Northeast  Level Estimated
12:09AM -3.1861 -35.0735 27° Northeast  Level Estimated
12:10AM -3.0751 -35.0164 27° Northeast  Level Estimated
12:11AM -2.9640 -34.9594 27° Northeast  Level Estimated
12:12AM -2.8530 -34.9023 27° Northeast  Level Estimated
12:13AM -2.7419 -34.8452 27° Northeast  Level Estimated
12:14AM -2.6308 -34.7882 27° Northeast  Level Estimated
12:15AM -2.5197 -34.7312 27° Northeast  Level Estimated
12:16AM -2.4087 -34.6741 27° Northeast  Level Estimated
12:17AM -2.2976 -34.6171 27° Northeast  Level Estimated
12:18AM -2.1865 -34.5601 27° Northeast  Level Estimated
12:19AM -2.0754 -34.5032 27° Northeast  Level Estimated
12:20AM -1.9643 -34.4462 27° Northeast  Level Estimated
12:21AM -1.8532 -34.3892 27° Northeast  Level Estimated
12:22AM -1.7421 -34.3322 27° Northeast  Level Estimated
12:23AM -1.6311 -34.2753 27° Northeast  Level Estimated
12:24AM -1.5200 -34.2183 27° Northeast  Level Estimated
12:25AM -1.4089 -34.1614 27° Northeast  Level Estimated
12:26AM -1.2978 -34.1044 27° Northeast  Level Estimated
12:27AM -1.1867 -34.0475 27° Northeast  Level Estimated
12:28AM -1.0756 -33.9906 27° Northeast  Level Estimated
12:29AM -0.9645 -33.9336 27° Northeast  Level Estimated
12:30AM -0.8534 -33.8767 27° Northeast  Level Estimated
12:31AM -0.7423 -33.8198 27° Northeast  Level Estimated
12:32AM -0.6312 -33.7629 27° Northeast  Level Estimated
12:33AM -0.5201 -33.7059 27° Northeast  Level Estimated
12:34AM -0.4090 -33.6490 27° Northeast  Level Estimated
12:35AM -0.2979 -33.5921 27° Northeast  Level Estimated
12:36AM -0.1868 -33.5352 27° Northeast  Level Estimated
12:37AM -0.0757 -33.4783 27° Northeast  Level Estimated
12:38AM 0.0354 -33.4214 27° Northeast  Level Estimated
12:39AM 0.1465 -33.3645 27° Northeast  Level Estimated
12:40AM 0.2576 -33.3076 27° Northeast  Level Estimated
12:41AM 0.3687 -33.2506 27° Northeast  Level Estimated
12:42AM 0.4798 -33.1937 27° Northeast  Level Estimated
12:43AM 0.5909 -33.1368 27° Northeast  Level Estimated
12:44AM 0.7020 -33.0799 27° Northeast  Level Estimated
12:45AM 0.8131 -33.0230 27° Northeast  Level Estimated
12:46AM 0.9242 -32.9661 27° Northeast  Level Estimated
12:47AM 1.0353 -32.9091 27° Northeast  Level Estimated
12:48AM 1.1464 -32.8522 27° Northeast  Level Estimated
12:49AM 1.2575 -32.7953 27° Northeast  Level Estimated
12:50AM 1.3686 -32.7383 27° Northeast  Level Estimated
12:51AM 1.4797 -32.6814 27° Northeast  Level Estimated
12:52AM 1.5908 -32.6244 27° Northeast  Level Estimated
12:53AM 1.7019 -32.5675 27° Northeast  Level Estimated
12:54AM 1.8130 -32.5105 27° Northeast  Level Estimated
12:55AM 1.9241 -32.4535 27° Northeast  Level Estimated
12:56AM 2.0352 -32.3965 27° Northeast  Level Estimated
12:57AM 2.1463 -32.3396 27° Northeast  Level Estimated
12:58AM 2.2573 -32.2826 27° Northeast  Level Estimated
12:59AM 2.3684 -32.2256 27° Northeast  Level Estimated
01:00AM 2.4795 -32.1685 27° Northeast  Level Estimated
01:01AM 2.5906 -32.1115 27° Northeast  Level Estimated
01:02AM 2.7016 -32.0545 27° Northeast  Level Estimated
01:03AM 2.8127 -31.9974 27° Northeast  Level Estimated
01:04AM 2.9238 -31.9404 27° Northeast  Level Estimated
01:05AM 3.0348 -31.8833 27° Northeast  Level Estimated
01:06AM 3.1459 -31.8263 27° Northeast  Level Estimated
01:07AM 3.2570 -31.7692 27° Northeast  Level Estimated
01:08AM 3.3680 -31.7121 27° Northeast  Level Estimated
01:09AM 3.4791 -31.6549 27° Northeast  Level Estimated
01:10AM 3.5901 -31.5978 27° Northeast  Level Estimated
01:11AM 3.7012 -31.5407 27° Northeast  Level Estimated
01:12AM 3.8122 -31.4835 27° Northeast  Level Estimated
01:13AM 3.9233 -31.4263 27° Northeast  Level Estimated
01:14AM 4.0343 -31.3692 27° Northeast  Level Estimated
01:15AM 4.1453 -31.3120 27° Northeast  Level Estimated
01:16AM 4.2564 -31.2547 27° Northeast  Level Estimated
01:17AM 4.3674 -31.1975 27° Northeast  Level Estimated
01:18AM 4.4784 -31.1402 27° Northeast  Level Estimated
01:19AM 4.5894 -31.0830 27° Northeast  Level Estimated
01:20AM 4.7004 -31.0257 27° Northeast  Level Estimated
01:21AM 4.8114 -30.9684 27° Northeast  Level Estimated
01:22AM 4.9224 -30.9111 27° Northeast  Level Estimated
01:23AM 5.0334 -30.8537 27° Northeast  Level Estimated
01:24AM 5.1444 -30.7964 27° Northeast  Level Estimated
01:25AM 5.2554 -30.7390 27° Northeast  Level Estimated
01:26AM 5.3664 -30.6816 27° Northeast  Level Estimated
01:27AM 5.4773 -30.6241 27° Northeast  Level Estimated
01:28AM 5.5883 -30.5667 27° Northeast  Level Estimated
01:29AM 5.6993 -30.5092 27° Northeast  Level Estimated
01:30AM 5.8102 -30.4517 27° Northeast  Level Estimated
01:31AM 5.9212 -30.3942 27° Northeast  Level Estimated
01:32AM 6.0321 -30.3367 27° Northeast  Level Estimated
01:33AM 6.1430 -30.2791 27° Northeast  Level Estimated
01:34AM 6.2540 -30.2215 27° Northeast  Level Estimated
01:35AM 6.3649 -30.1639 27° Northeast  Level Estimated
01:36AM 6.4758 -30.1063 27° Northeast  Level Estimated
01:37AM 6.5867 -30.0487 27° Northeast  Level Estimated
01:38AM 6.6976 -29.9910 27° Northeast  Level Estimated
01:39AM 6.8085 -29.9333 27° Northeast  Level Estimated
01:40AM 6.9194 -29.8755 27° Northeast  Level Estimated
01:41AM 7.0303 -29.8178 27° Northeast  Level Estimated
01:42AM 7.1412 -29.7600 27° Northeast  Level Estimated
01:43AM 7.2521 -29.7022 27° Northeast  Level Estimated
01:44AM 7.3629 -29.6443 27° Northeast  Level Estimated
01:45AM 7.4738 -29.5864 27° Northeast  Level Estimated
01:46AM 7.5846 -29.5285 27° Northeast  Level Estimated
01:47AM 7.6955 -29.4706 27° Northeast  Level Estimated
01:48AM 7.8063 -29.4126 27° Northeast  Level Estimated
01:49AM 7.9171 -29.3546 27° Northeast  Level Estimated
01:50AM 8.0280 -29.2966 27° Northeast  Level Estimated
01:51AM 8.1388 -29.2385 27° Northeast  Level Estimated
01:52AM 8.2496 -29.1804 27° Northeast  Level Estimated
01:53AM 8.3604 -29.1223 27° Northeast  Level Estimated
01:54AM 8.4711 -29.0641 27° Northeast  Level Estimated
01:55AM 8.5819 -29.0060 27° Northeast  Level Estimated
01:56AM 8.6927 -28.9477 27° Northeast  Level Estimated
01:57AM 8.8034 -28.8895 27° Northeast  Level Estimated
01:58AM 8.9142 -28.8312 27° Northeast  Level Estimated
01:59AM 9.0249 -28.7729 27° Northeast  Level Estimated
02:00AM 9.1357 -28.7145 27° Northeast  Level Estimated
02:01AM 9.2464 -28.6561 28° Northeast  Level Estimated
02:02AM 9.3571 -28.5976 28° Northeast  Level Estimated
02:03AM 9.4678 -28.5392 28° Northeast  Level Estimated
02:04AM 9.5785 -28.4806 28° Northeast  Level Estimated
02:05AM 9.6892 -28.4221 28° Northeast  Level Estimated
02:06AM 9.7998 -28.3635 28° Northeast  Level Estimated
02:07AM 9.9105 -28.3049 28° Northeast  Level Estimated
02:08AM 10.0211 -28.2462 28° Northeast  Level Estimated
02:09AM 10.1318 -28.1875 28° Northeast  Level Estimated
02:10AM 10.2424 -28.1287 28° Northeast  Level Estimated
02:11AM 10.3530 -28.0700 28° Northeast  Level Estimated
02:12AM 10.4636 -28.0111 28° Northeast  Level Estimated
02:13AM 10.5743 -27.9523 28° Northeast  Level Estimated
02:14AM 10.6848 -27.8933 28° Northeast  Level Estimated
02:15AM 10.7954 -27.8344 28° Northeast  Level Estimated
02:16AM 10.9060 -27.7754 28° Northeast  Level Estimated
02:17AM 11.0166 -27.7163 28° Northeast  Level Estimated
02:18AM 11.1271 -27.6572 28° Northeast  Level Estimated
02:19AM 11.2376 -27.5981 28° Northeast  Level Estimated
02:20AM 11.3481 -27.5389 28° Northeast  Level Estimated
02:21AM 11.4586 -27.4797 28° Northeast  Level Estimated
02:22AM 11.5691 -27.4204 28° Northeast  Level Estimated
02:23AM 11.6796 -27.3611 28° Northeast  Level Estimated
02:24AM 11.7901 -27.3017 28° Northeast  Level Estimated
02:25AM 11.9006 -27.2423 28° Northeast  Level Estimated
02:26AM 12.0110 -27.1829 28° Northeast  Level Estimated
02:27AM 12.1215 -27.1234 28° Northeast  Level Estimated
02:28AM 12.2319 -27.0638 28° Northeast  Level Estimated
02:29AM 12.3423 -27.0042 28° Northeast  Level Estimated
02:30AM 12.4527 -26.9445 28° Northeast  Level Estimated
02:31AM 12.5631 -26.8848 28° Northeast  Level Estimated
02:32AM 12.6734 -26.8251 28° Northeast  Level Estimated
02:33AM 12.7838 -26.7652 28° Northeast  Level Estimated
02:34AM 12.8941 -26.7054 28° Northeast  Level Estimated
02:35AM 13.0045 -26.6454 28° Northeast  Level Estimated
02:36AM 13.1148 -26.5855 28° Northeast  Level Estimated
02:37AM 13.2251 -26.5254 28° Northeast  Level Estimated
02:38AM 13.3354 -26.4654 28° Northeast  Level Estimated
02:39AM 13.4457 -26.4052 28° Northeast  Level Estimated
02:40AM 13.5559 -26.3450 28° Northeast  Level Estimated
02:41AM 13.6662 -26.2848 28° Northeast  Level Estimated
02:42AM 13.7764 -26.2245 28° Northeast  Level Estimated
02:43AM 13.8866 -26.1641 28° Northeast  Level Estimated
02:44AM 13.9968 -26.1037 28° Northeast  Level Estimated
02:45AM 14.1070 -26.0432 28° Northeast  Level Estimated
02:46AM 14.2172 -25.9827 28° Northeast  Level Estimated
02:47AM 14.3273 -25.9221 28° Northeast  Level Estimated
02:48AM 14.4375 -25.8614 28° Northeast  Level Estimated
02:49AM 14.5476 -25.8007 28° Northeast  Level Estimated
02:50AM 14.6577 -25.7400 28° Northeast  Level Estimated
02:51AM 14.7678 -25.6791 28° Northeast  Level Estimated
02:52AM 14.8779 -25.6182 28° Northeast  Level Estimated
02:53AM 14.9880 -25.5573 28° Northeast  Level Estimated
02:54AM 15.0980 -25.4962 28° Northeast  Level Estimated
02:55AM 15.2080 -25.4352 28° Northeast  Level Estimated
02:56AM 15.3180 -25.3740 28° Northeast  Level Estimated
02:57AM 15.4280 -25.3128 28° Northeast  Level Estimated
02:58AM 15.5380 -25.2515 28° Northeast  Level Estimated
02:59AM 15.6480 -25.1902 28° Northeast  Level Estimated
03:00AM 15.7579 -25.1288 28° Northeast  Level Estimated
03:01AM 15.8679 -25.0673 28° Northeast  Level Estimated
03:02AM 15.9778 -25.0057 28° Northeast  Level Estimated
03:03AM 16.0877 -24.9441 28° Northeast  Level Estimated
03:04AM 16.1975 -24.8825 28° Northeast  Level Estimated
03:05AM 16.3074 -24.8207 28° Northeast  Level Estimated
03:06AM 16.4172 -24.7589 28° Northeast  Level Estimated
03:07AM 16.5271 -24.6970 28° Northeast  Level Estimated
03:08AM 16.6369 -24.6350 28° Northeast  Level Estimated
03:09AM 16.7467 -24.5730 28° Northeast  Level Estimated
03:10AM 16.8564 -24.5109 28° Northeast  Level Estimated
03:11AM 16.9662 -24.4487 28° Northeast  Level Estimated
03:12AM 17.0759 -24.3865 28° Northeast  Level Estimated
03:13AM 17.1856 -24.3242 28° Northeast  Level Estimated
03:14AM 17.2953 -24.2618 29° Northeast  Level Estimated
03:15AM 17.4050 -24.1993 29° Northeast  Level Estimated
03:16AM 17.5146 -24.1368 29° Northeast  Level Estimated
03:17AM 17.6243 -24.0742 29° Northeast  Level Estimated
03:18AM 17.7339 -24.0115 29° Northeast  Level Estimated
03:19AM 17.8435 -23.9487 29° Northeast  Level Estimated
03:20AM 17.9530 -23.8858 29° Northeast  Level Estimated
03:21AM 18.0626 -23.8229 29° Northeast  Level Estimated
03:22AM 18.1721 -23.7599 29° Northeast  Level Estimated
03:23AM 18.2816 -23.6968 29° Northeast  Level Estimated
03:24AM 18.3911 -23.6337 29° Northeast  Level Estimated
03:25AM 18.5006 -23.5704 29° Northeast  Level Estimated
03:26AM 18.6100 -23.5071 29° Northeast  Level Estimated
03:27AM 18.7194 -23.4437 29° Northeast  Level Estimated
03:28AM 18.8289 -23.3802 29° Northeast  Level Estimated
03:29AM 18.9382 -23.3166 29° Northeast  Level Estimated
03:30AM 19.0476 -23.2530 29° Northeast  Level Estimated
03:31AM 19.1569 -23.1893 29° Northeast  Level Estimated
03:32AM 19.2663 -23.1254 29° Northeast  Level Estimated
03:33AM 19.3756 -23.0615 29° Northeast  Level Estimated
03:34AM 19.4848 -22.9975 29° Northeast  Level Estimated
03:35AM 19.5941 -22.9335 29° Northeast  Level Estimated
03:36AM 19.7033 -22.8693 29° Northeast  Level Estimated
03:37AM 19.8125 -22.8050 29° Northeast  Level Estimated
03:38AM 19.9217 -22.7407 29° Northeast  Level Estimated
03:39AM 20.0309 -22.6763 29° Northeast  Level Estimated
03:40AM 20.1400 -22.6117 29° Northeast  Level Estimated
03:41AM 20.2491 -22.5471 29° Northeast  Level Estimated
03:42AM 20.3582 -22.4824 29° Northeast  Level Estimated
03:43AM 20.4673 -22.4176 29° Northeast  Level Estimated
03:44AM 20.5763 -22.3528 29° Northeast  Level Estimated
03:45AM 20.6854 -22.2878 29° Northeast  Level Estimated
03:46AM 20.7943 -22.2227 29° Northeast  Level Estimated
03:47AM 20.9033 -22.1575 29° Northeast  Level Estimated
03:48AM 21.0123 -22.0923 29° Northeast  Level Estimated
03:49AM 21.1212 -22.0269 29° Northeast  Level Estimated
03:50AM 21.2301 -21.9615 29° Northeast  Level Estimated
03:51AM 21.3389 -21.8959 29° Northeast  Level Estimated
03:52AM 21.4478 -21.8303 29° Northeast  Level Estimated
03:53AM 21.5566 -21.7645 29° Northeast  Level Estimated
03:54AM 21.6654 -21.6987 29° Northeast  Level Estimated
03:55AM 21.7742 -21.6327 29° Northeast  Level Estimated
03:56AM 21.8829 -21.5667 29° Northeast  Level Estimated
03:57AM 21.9916 -21.5006 29° Northeast  Level Estimated
03:58AM 22.1003 -21.4343 29° Northeast  Level Estimated
03:59AM 22.2090 -21.3680 29° Northeast  Level Estimated
04:00AM 22.3176 -21.3015 30° Northeast  Level Estimated
04:01AM 22.4262 -21.2350 30° Northeast  Level Estimated
04:02AM 22.5348 -21.1683 30° Northeast  Level Estimated
04:03AM 22.6433 -21.1015 30° Northeast  Level Estimated
04:04AM 22.7519 -21.0347 30° Northeast  Level Estimated
04:05AM 22.8604 -20.9677 30° Northeast  Level Estimated
04:06AM 22.9688 -20.9006 30° Northeast  Level Estimated
04:07AM 23.0773 -20.8334 30° Northeast  Level Estimated
04:08AM 23.1857 -20.7661 30° Northeast  Level Estimated
04:09AM 23.2941 -20.6987 30° Northeast  Level Estimated
04:10AM 23.4024 -20.6312 30° Northeast  Level Estimated
04:11AM 23.5107 -20.5636 30° Northeast  Level Estimated
04:12AM 23.6190 -20.4958 30° Northeast  Level Estimated
04:13AM 23.7273 -20.4280 30° Northeast  Level Estimated
04:14AM 23.8356 -20.3600 30° Northeast  Level Estimated
04:15AM 23.9438 -20.2920 30° Northeast  Level Estimated
04:16AM 24.0519 -20.2238 30° Northeast  Level Estimated
04:17AM 24.1601 -20.1555 30° Northeast  Level Estimated
04:18AM 24.2682 -20.0870 30° Northeast  Level Estimated
04:19AM 24.3763 -20.0185 30° Northeast  Level Estimated
04:20AM 24.4844 -19.9498 30° Northeast  Level Estimated
04:21AM 24.5924 -19.8811 30° Northeast  Level Estimated
04:22AM 24.7004 -19.8122 30° Northeast  Level Estimated
04:23AM 24.8083 -19.7432 30° Northeast  Level Estimated
04:24AM 24.9163 -19.6740 30° Northeast  Level Estimated
04:25AM 25.0242 -19.6048 30° Northeast  Level Estimated
04:26AM 25.1320 -19.5354 30° Northeast  Level Estimated
04:27AM 25.2398 -19.4659 30° Northeast  Level Estimated
04:28AM 25.3477 -19.3963 30° Northeast  Level Estimated
04:29AM 25.4554 -19.3265 30° Northeast  Level Estimated
04:30AM 25.5632 -19.2567 30° Northeast  Level Estimated
04:31AM 25.6709 -19.1867 30° Northeast  Level Estimated
04:32AM 25.7785 -19.1166 30° Northeast  Level Estimated
04:33AM 25.8862 -19.0463 30° Northeast  Level Estimated
04:34AM 25.9937 -18.9759 30° Northeast  Level Estimated
04:35AM 26.1013 -18.9054 30° Northeast  Level Estimated
04:36AM 26.2089 -18.8348 31° Northeast  Level Estimated
04:37AM 26.3164 -18.7640 31° Northeast  Level Estimated
04:38AM 26.4238 -18.6931 31° Northeast  Level Estimated
04:39AM 26.5312 -18.6221 31° Northeast  Level Estimated
04:40AM 26.6386 -18.5509 31° Northeast  Level Estimated
04:41AM 26.7460 -18.4796 31° Northeast  Level Estimated
04:42AM 26.8533 -18.4082 31° Northeast  Level Estimated
04:43AM 26.9606 -18.3366 31° Northeast  Level Estimated
04:44AM 27.0679 -18.2649 31° Northeast  Level Estimated
04:45AM 27.1751 -18.1931 31° Northeast  Level Estimated
04:46AM 27.2822 -18.1211 31° Northeast  Level Estimated
04:47AM 27.3894 -18.0490 31° Northeast  Level Estimated
04:48AM 27.4965 -17.9767 31° Northeast  Level Estimated
04:49AM 27.6035 -17.9043 31° Northeast  Level Estimated
04:50AM 27.7106 -17.8318 31° Northeast  Level Estimated
04:51AM 27.8176 -17.7591 31° Northeast  Level Estimated
04:52AM 27.9245 -17.6863 31° Northeast  Level Estimated
04:53AM 28.0314 -17.6133 31° Northeast  Level Estimated
04:54AM 28.1383 -17.5402 31° Northeast  Level Estimated
04:55AM 28.2451 -17.4669 31° Northeast  Level Estimated
04:56AM 28.3519 -17.3935 31° Northeast  Level Estimated
04:57AM 28.4587 -17.3200 31° Northeast  Level Estimated
04:58AM 28.5654 -17.2462 31° Northeast  Level Estimated
04:59AM 28.6721 -17.1724 31° Northeast  Level Estimated
05:00AM 28.7787 -17.0984 31° Northeast  Level Estimated
05:01AM 28.8853 -17.0242 31° Northeast  Level Estimated
05:02AM 28.9919 -16.9499 31° Northeast  Level Estimated
05:03AM 29.0984 -16.8754 31° Northeast  Level Estimated
05:04AM 29.2049 -16.8008 31° Northeast  Level Estimated
05:05AM 29.3113 -16.7260 31° Northeast  Level Estimated
05:06AM 29.4177 -16.6511 32° Northeast  Level Estimated
05:07AM 29.5240 -16.5760 32° Northeast  Level Estimated
05:08AM 29.6303 -16.5008 32° Northeast  Level Estimated
05:09AM 29.7366 -16.4254 32° Northeast  Level Estimated
05:10AM 29.8428 -16.3498 32° Northeast  Level Estimated
05:11AM 29.9490 -16.2741 32° Northeast  Level Estimated
05:12AM 30.0551 -16.1982 32° Northeast  Level Estimated
05:13AM 30.1612 -16.1222 32° Northeast  Level Estimated
05:14AM 30.2673 -16.0460 32° Northeast  Level Estimated
05:15AM 30.3733 -15.9696 32° Northeast  Level Estimated
05:16AM 30.4792 -15.8931 32° Northeast  Level Estimated
05:17AM 30.5851 -15.8163 32° Northeast  Level Estimated
05:18AM 30.6910 -15.7395 32° Northeast  Level Estimated
05:19AM 30.7968 -15.6624 32° Northeast  Level Estimated
05:20AM 30.9026 -15.5852 32° Northeast  Level Estimated
05:21AM 31.0083 -15.5078 32° Northeast  Level Estimated
05:22AM 31.1140 -15.4302 32° Northeast  Level Estimated
05:23AM 31.2197 -15.3525 32° Northeast  Level Estimated
05:24AM 31.3253 -15.2746 32° Northeast  Level Estimated
05:25AM 31.4308 -15.1965 32° Northeast  Level Estimated
05:26AM 31.5363 -15.1183 32° Northeast  Level Estimated
05:27AM 31.6417 -15.0398 32° Northeast  Level Estimated
05:28AM 31.7471 -14.9612 32° Northeast  Level Estimated
05:29AM 31.8525 -14.8824 32° Northeast  Level Estimated
05:30AM 31.9578 -14.8035 32° Northeast  Level Estimated
05:31AM 32.0630 -14.7243 33° Northeast  Level Estimated
05:32AM 32.1683 -14.6450 33° Northeast  Level Estimated
05:33AM 32.2734 -14.5655 33° Northeast  Level Estimated
05:34AM 32.3785 -14.4858 33° Northeast  Level Estimated
05:35AM 32.4836 -14.4059 33° Northeast  Level Estimated
05:36AM 32.5886 -14.3258 33° Northeast  Level Estimated
05:37AM 32.6935 -14.2456 33° Northeast  Level Estimated
05:38AM 32.7984 -14.1651 33° Northeast  Level Estimated
05:39AM 32.9033 -14.0845 33° Northeast  Level Estimated
05:40AM 33.0081 -14.0036 33° Northeast  Level Estimated
05:41AM 33.1128 -13.9226 33° Northeast  Level Estimated
05:42AM 33.2175 -13.8414 33° Northeast  Level Estimated
05:43AM 33.3222 -13.7600 33° Northeast  Level Estimated
05:44AM 33.4268 -13.6784 33° Northeast  Level Estimated
05:45AM 33.5313 -13.5966 33° Northeast  Level Estimated
05:46AM 33.6358 -13.5146 33° Northeast  Level Estimated
05:47AM 33.7402 -13.4324 33° Northeast  Level Estimated
05:48AM 33.8446 -13.3500 33° Northeast  Level Estimated
05:49AM 33.9489 -13.2674 33° Northeast  Level Estimated
05:50AM 34.0531 -13.1846 33° Northeast  Level Estimated
05:51AM 34.1573 -13.1016 33° Northeast  Level Estimated
05:52AM 34.2615 -13.0183 33° Northeast  Level Estimated
05:53AM 34.3656 -12.9349 33° Northeast  Level Estimated
05:54AM 34.4696 -12.8513 34° Northeast  Level Estimated
05:55AM 34.5736 -12.7675 34° Northeast  Level Estimated
05:56AM 34.6775 -12.6834 34° Northeast  Level Estimated
05:57AM 34.7814 -12.5991 34° Northeast  Level Estimated
05:58AM 34.8852 -12.5147 34° Northeast  Level Estimated
05:59AM 34.9889 -12.4300 34° Northeast  Level Estimated
06:00AM 35.0926 -12.3451 34° Northeast  Level Estimated
06:01AM 35.1963 -12.2600 34° Northeast  Level Estimated
06:02AM 35.2998 -12.1746 34° Northeast  Level Estimated
06:03AM 35.4034 -12.0891 34° Northeast  Level Estimated
06:04AM 35.5068 -12.0033 34° Northeast  Level Estimated
06:05AM 35.6102 -11.9173 34° Northeast  Level Estimated
06:06AM 35.7135 -11.8311 34° Northeast  Level Estimated
06:07AM 35.8168 -11.7447 34° Northeast  Level Estimated
06:08AM 35.9200 -11.6580 34° Northeast  Level Estimated
06:09AM 36.0231 -11.5711 34° Northeast  Level Estimated
06:10AM 36.1262 -11.4840 34° Northeast  Level Estimated
06:11AM 36.2292 -11.3967 34° Northeast  Level Estimated
06:12AM 36.3322 -11.3091 34° Northeast  Level Estimated
06:13AM 36.4351 -11.2213 34° Northeast  Level Estimated
06:14AM 36.5379 -11.1332 35° Northeast  Level Estimated
06:15AM 36.6406 -11.0449 35° Northeast  Level Estimated
06:16AM 36.7433 -10.9564 35° Northeast  Level Estimated
06:17AM 36.8460 -10.8677 35° Northeast  Level Estimated
06:18AM 36.9485 -10.7787 35° Northeast  Level Estimated
06:19AM 37.0510 -10.6895 35° Northeast  Level Estimated
06:20AM 37.1534 -10.6000 35° Northeast  Level Estimated
06:21AM 37.2558 -10.5103 35° Northeast  Level Estimated
06:22AM 37.3581 -10.4203 35° Northeast  Level Estimated
06:23AM 37.4603 -10.3301 35° Northeast  Level Estimated
06:24AM 37.5625 -10.2397 35° Northeast  Level Estimated
06:25AM 37.6646 -10.1490 35° Northeast  Level Estimated
06:26AM 37.7666 -10.0580 35° Northeast  Level Estimated
06:27AM 37.8685 -9.9668 35° Northeast  Level Estimated
06:28AM 37.9704 -9.8754 35° Northeast  Level Estimated
06:29AM 38.0722 -9.7837 35° Northeast  Level Estimated
06:30AM 38.1739 -9.6917 35° Northeast  Level Estimated
06:31AM 38.2756 -9.5995 35° Northeast  Level Estimated
06:32AM 38.3772 -9.5070 36° Northeast  Level Estimated
06:33AM 38.4787 -9.4143 36° Northeast  Level Estimated
06:34AM 38.5802 -9.3213 36° Northeast  Level Estimated
06:35AM 38.6815 -9.2281 36° Northeast  Level Estimated
06:36AM 38.7813 -9.1359 36° Northeast  Level Estimated
06:37AM 38.7813 -9.1359 38° Northeast  Level Estimated
06:38AM 38.7813 -9.1359 38° Northeast  Level Estimated
06:39AM 38.7813 -9.1359 38° Northeast  Level Estimated
06:40AM 38.7813 -9.1359 38° Northeast  Level Estimated
06:41AM 38.7813 -9.1359 38° Northeast  Level Estimated
06:42AM 38.7813 -9.1359 38° Northeast  Level Estimated
06:43AM 38.7813 -9.1359 38° Northeast  Level Estimated
06:44AM 38.7813 -9.1359 38° Northeast  Level Estimated
06:45AM 38.7813 -9.1359 38° Northeast  Level Estimated
06:46AM 38.7813 -9.1359 38° Northeast  Level Estimated
06:47AM 38.7813 -9.1359 38° Northeast  Level Estimated
06:48AM 38.7813 -9.1359 38° Northeast  Level Estimated
06:49AM 38.7813 -9.1359 38° Northeast  Level Estimated
06:50AM 38.7813 -9.1359 38° Northeast  Level Estimated
06:51AM 38.7813 -9.1359 38° Northeast  Level Estimated